Oscoda, Michigan
Current Conditions -  °F | °C
As of 11:53 PM on Monday 20 Oct 2014 (Local Time) from KOSC Reporting Station
Overcast Overcast  
Wind Chill:   Ceiling: 1600
Heat Index:   Visibility: 10mi
Dew Point:   Wind: 10mph
Humidity: 93%   Direction: 320°NW
Pressure: 29.87"   Gusts: NA
Location:  44.42°N, 83.33°W
Report Text: KOSC 210353Z AUTO 32009KT 10SM BKN016 BKN034 OVC042 07/07 A2987 RMK AO2 T00800070
Loading
Personal Weather Stations






























Interactive Weather Map New forecast layout! Learn more

10-Day Weather Forecast

Advertisements
Track Severe Weather on mobile